Time;durP1;ratioP1;P1;durP2;ratioP2;P2;SDS_P1;SDS_P2;PMS_P1;PMS_P2;Temp;Humidity;BMP_temperature;BMP_pressure;BME280_temperature;BME280_humidity;BME280_pressure;Samples;Min_cycle;Max_cycle;Signal;HPM_P1;HPM_P2
2021/09/02 00:00:49;;;;;;;10.20;7.22;;;11.90;99.90;;;;;;4987818;28;20448;-73
2021/09/02 00:03:15;;;;;;;11.32;7.32;;;11.80;99.90;;;;;;4983765;28;20057;-73
2021/09/02 00:05:42;;;;;;;13.80;9.13;;;11.80;99.90;;;;;;4978569;28;20022;-73
2021/09/02 00:08:08;;;;;;;12.02;8.40;;;11.80;99.90;;;;;;4982508;28;20039;-73
2021/09/02 00:10:34;;;;;;;13.55;8.93;;;11.70;99.90;;;;;;4975470;28;20030;-74
2021/09/02 00:13:01;;;;;;;13.05;9.07;;;11.80;99.90;;;;;;4975297;28;20030;-74
2021/09/02 00:15:27;;;;;;;13.15;8.18;;;11.70;99.90;;;;;;4985976;28;20047;-73
2021/09/02 00:17:53;;;;;;;12.00;7.90;;;11.70;99.90;;;;;;4989152;28;20043;-73
2021/09/02 00:20:20;;;;;;;14.73;9.05;;;11.60;99.90;;;;;;4988124;28;20030;-74
2021/09/02 00:22:48;;;;;;;12.85;8.73;;;11.60;99.90;;;;;;4979184;28;20043;-74
2021/09/02 00:25:14;;;;;;;13.25;9.65;;;11.50;99.90;;;;;;4993402;28;20053;-74
2021/09/02 00:27:40;;;;;;;14.05;9.30;;;11.50;99.90;;;;;;4993176;28;20050;-74
2021/09/02 00:30:07;;;;;;;13.63;9.88;;;11.50;99.90;;;;;;5006586;28;20053;-74
2021/09/02 00:32:33;;;;;;;16.25;9.70;;;11.60;99.90;;;;;;4994157;28;20031;-74
2021/09/02 00:35:00;;;;;;;15.57;10.90;;;11.60;99.90;;;;;;4976587;28;20357;-74
2021/09/02 00:37:26;;;;;;;17.27;10.93;;;11.70;99.90;;;;;;4983586;28;20033;-74
2021/09/02 00:39:52;;;;;;;14.77;11.40;;;11.80;99.90;;;;;;4974729;28;20063;-73
2021/09/02 00:42:18;;;;;;;15.93;11.13;;;11.80;99.90;;;;;;4975278;28;20039;-73
2021/09/02 00:44:48;;;;;;;18.23;11.15;;;11.80;99.90;;;;;;4975316;28;20033;-74
2021/09/02 00:47:15;;;;;;;15.03;11.10;;;11.80;99.90;;;;;;4975154;28;20484;-73
2021/09/02 00:49:42;;;;;;;16.10;10.50;;;11.80;99.90;;;;;;4982588;28;20468;-73
2021/09/02 00:52:15;;;;;;;15.73;11.25;;;12.00;99.90;;;;;;4993259;28;20043;-74
2021/09/02 00:54:47;;;;;;;14.15;10.93;;;12.00;99.90;;;;;;4989766;28;20394;-73
2021/09/02 00:57:24;;;;;;;14.32;10.75;;;12.00;99.90;;;;;;5005614;28;20065;-73
2021/09/02 00:59:54;;;;;;;16.45;10.77;;;12.00;99.90;;;;;;4980981;28;20456;-73
2021/09/02 01:02:24;;;;;;;17.53;10.47;;;11.90;99.90;;;;;;4976481;28;20041;-73
2021/09/02 01:04:52;;;;;;;11.45;8.18;;;11.90;99.90;;;;;;4974111;28;20286;-73
2021/09/02 01:07:23;;;;;;;16.20;10.32;;;11.90;99.90;;;;;;4982505;28;20022;-73
2021/09/02 01:09:51;;;;;;;;;;;11.90;99.90;;;;;;4974895;28;20315;-73
2021/09/02 01:12:30;;;;;;;15.77;9.70;;;11.80;99.90;;;;;;4975259;28;19906;-74
2021/09/02 01:14:58;;;;;;;17.33;10.02;;;11.80;99.90;;;;;;4983641;28;20041;-73
2021/09/02 01:17:25;;;;;;;17.20;10.65;;;11.80;99.90;;;;;;4975092;28;20046;-74
2021/09/02 01:19:55;;;;;;;15.65;9.93;;;11.70;99.90;;;;;;4983653;28;20025;-74
2021/09/02 01:22:26;;;;;;;18.67;10.30;;;11.70;99.90;;;;;;4984118;28;20027;-73
2021/09/02 01:24:54;;;;;;;14.35;10.75;;;11.80;99.90;;;;;;4974134;28;20453;-74
2021/09/02 01:27:23;;;;;;;19.65;12.30;;;11.70;99.90;;;;;;4975024;28;20035;-73
2021/09/02 01:29:52;;;;;;;17.23;10.25;;;11.70;99.90;;;;;;4993026;28;20046;-73
2021/09/02 01:32:20;;;;;;;15.07;10.77;;;11.60;99.90;;;;;;4975454;28;20107;-73
2021/09/02 01:34:46;;;;;;;15.90;10.68;;;11.60;99.90;;;;;;4973970;28;20039;-73
2021/09/02 01:37:12;;;;;;;16.85;10.85;;;11.60;99.90;;;;;;4973986;28;20031;-73
2021/09/02 01:39:39;;;;;;;17.17;11.18;;;11.50;99.90;;;;;;4975012;28;20030;-73
2021/09/02 01:42:05;;;;;;;16.42;11.23;;;11.50;99.90;;;;;;5018537;28;20091;-74
2021/09/02 01:44:31;;;;;;;15.48;10.82;;;11.40;99.90;;;;;;4973882;28;20030;-73
2021/09/02 01:46:57;;;;;;;14.88;10.98;;;11.40;99.90;;;;;;4973746;28;20468;-73
2021/09/02 01:49:23;;;;;;;16.48;11.80;;;11.40;99.90;;;;;;4973606;28;20031;-73
2021/09/02 01:51:49;;;;;;;20.70;12.73;;;11.30;99.90;;;;;;4973320;28;20083;-72
2021/09/02 01:54:16;;;;;;;19.35;12.98;;;11.30;99.90;;;;;;4973976;28;20042;-73
2021/09/02 01:56:42;;;;;;;20.38;12.65;;;11.40;99.90;;;;;;4973451;28;20030;-73
2021/09/02 01:59:08;;;;;;;19.38;12.25;;;11.40;99.90;;;;;;4973681;28;20027;-73
2021/09/02 02:01:34;;;;;;;21.05;13.73;;;11.40;99.90;;;;;;4988819;28;20392;-73
2021/09/02 02:04:00;;;;;;;19.92;11.98;;;11.40;99.90;;;;;;4973991;28;20053;-73
2021/09/02 02:06:26;;;;;;;16.98;12.05;;;11.50;99.90;;;;;;4991412;28;20023;-73
2021/09/02 02:08:53;;;;;;;17.75;12.20;;;11.50;99.90;;;;;;4991736;28;20038;-73
2021/09/02 02:11:19;;;;;;;22.00;12.75;;;11.50;99.90;;;;;;4979696;28;20476;-73
2021/09/02 02:13:45;;;;;;;18.65;12.65;;;11.40;99.90;;;;;;4980425;28;20361;-74
2021/09/02 02:16:11;;;;;;;17.35;11.98;;;11.50;99.90;;;;;;4982363;28;20038;-74
2021/09/02 02:18:37;;;;;;;17.38;12.05;;;11.50;99.90;;;;;;4983530;28;20031;-74
2021/09/02 02:21:03;;;;;;;18.05;11.70;;;11.40;99.90;;;;;;4986842;28;20037;-74
2021/09/02 02:23:30;;;;;;;15.27;11.02;;;11.40;99.90;;;;;;4975345;28;20027;-75
2021/09/02 02:25:56;;;;;;;19.88;11.68;;;11.40;99.90;;;;;;4989664;28;20033;-74
2021/09/02 02:28:22;;;;;;;17.58;12.05;;;11.30;99.90;;;;;;4990415;28;20384;-74
2021/09/02 02:30:48;;;;;;;17.02;12.50;;;11.30;99.90;;;;;;4991105;28;20364;-74
2021/09/02 02:33:14;;;;;;;20.23;11.70;;;11.30;99.90;;;;;;4991733;28;20368;-74
2021/09/02 02:35:40;;;;;;;18.23;12.70;;;11.30;99.90;;;;;;4991103;28;20058;-74
2021/09/02 02:38:07;;;;;;;19.42;11.60;;;11.20;99.90;;;;;;4973215;28;20034;-74
2021/09/02 02:40:33;;;;;;;26.88;12.75;;;11.20;99.90;;;;;;4973001;28;20034;-74
2021/09/02 02:43:00;;;;;;;17.85;12.63;;;11.10;99.90;;;;;;4973150;28;20380;-74
2021/09/02 02:45:26;;;;;;;18.05;11.38;;;11.10;99.90;;;;;;4987515;28;20030;-74
2021/09/02 02:47:52;;;;;;;15.98;11.18;;;11.10;99.90;;;;;;4995846;28;20042;-74
2021/09/02 02:50:18;;;;;;;17.10;12.48;;;11.00;99.90;;;;;;4975923;28;20366;-74
2021/09/02 02:52:45;;;;;;;19.40;12.57;;;11.00;99.90;;;;;;4991551;28;20064;-72
2021/09/02 02:55:11;;;;;;;17.85;11.30;;;10.90;99.90;;;;;;4992244;28;20037;-74
2021/09/02 02:57:37;;;;;;;17.95;11.45;;;10.90;99.90;;;;;;4976827;28;20452;-74
2021/09/02 03:00:06;;;;;;;17.90;11.95;;;10.90;99.90;;;;;;4977688;28;20030;-74
2021/09/02 03:02:32;;;;;;;19.10;12.25;;;10.80;99.90;;;;;;4977977;28;20023;-74
2021/09/02 03:04:58;;;;;;;18.13;12.48;;;10.80;99.90;;;;;;4982873;28;20039;-72
2021/09/02 03:07:25;;;;;;;22.83;12.43;;;10.70;99.90;;;;;;4979527;28;20042;-72
2021/09/02 03:09:51;;;;;;;17.65;12.15;;;10.70;99.90;;;;;;4993751;28;20043;-72
2021/09/02 03:12:17;;;;;;;18.25;11.23;;;10.60;99.90;;;;;;4995762;28;20037;-72
2021/09/02 03:14:43;;;;;;;19.60;12.27;;;10.60;99.90;;;;;;4995470;28;20043;-73
2021/09/02 03:17:09;;;;;;;25.08;13.93;;;10.60;99.90;;;;;;4997040;28;20471;-73
2021/09/02 03:19:36;;;;;;;20.27;13.20;;;10.60;99.90;;;;;;4985231;28;20042;-72
2021/09/02 03:22:02;;;;;;;22.75;14.30;;;10.60;99.90;;;;;;4986627;28;20045;-73
2021/09/02 03:24:28;;;;;;;23.92;13.50;;;10.60;99.90;;;;;;4981900;28;20022;-72
2021/09/02 03:26:55;;;;;;;21.73;12.85;;;10.60;99.90;;;;;;4975903;28;20034;-73
2021/09/02 03:29:21;;;;;;;20.33;13.60;;;10.50;99.90;;;;;;4976196;28;20068;-73
2021/09/02 03:31:47;;;;;;;21.38;12.88;;;10.60;99.90;;;;;;4976327;28;20368;-73
2021/09/02 03:34:13;;;;;;;25.15;14.05;;;10.60;99.90;;;;;;4977392;28;20022;-73
2021/09/02 03:36:41;;;;;;;22.88;13.15;;;10.70;99.90;;;;;;4998241;28;20042;-74
2021/09/02 03:39:07;;;;;;;22.13;13.82;;;10.50;99.90;;;;;;4982443;28;20055;-73
2021/09/02 03:41:33;;;;;;;21.27;12.25;;;10.50;99.90;;;;;;5004877;28;20065;-73
2021/09/02 03:44:00;;;;;;;20.33;13.05;;;10.40;99.90;;;;;;4995147;28;20445;-73
2021/09/02 03:46:26;;;;;;;18.30;12.60;;;10.40;99.90;;;;;;4989609;28;20466;-74
2021/09/02 03:48:52;;;;;;;19.55;13.60;;;10.40;99.90;;;;;;4994155;28;20045;-73
2021/09/02 03:51:18;;;;;;;19.48;13.52;;;10.40;99.90;;;;;;4994850;28;20030;-73
2021/09/02 03:53:44;;;;;;;22.50;14.05;;;10.30;99.90;;;;;;4993580;28;20034;-73
2021/09/02 03:56:10;;;;;;;20.02;13.35;;;10.30;99.90;;;;;;4986761;28;20031;-74
2021/09/02 03:58:37;;;;;;;23.70;14.32;;;10.40;99.90;;;;;;4981073;28;20026;-74
2021/09/02 04:01:03;;;;;;;21.88;13.43;;;10.30;99.90;;;;;;4979447;28;20022;-74
2021/09/02 04:03:29;;;;;;;22.88;14.90;;;10.30;99.90;;;;;;4975997;28;20034;-74
2021/09/02 04:05:55;;;;;;;21.65;12.95;;;10.30;99.90;;;;;;4974857;28;20047;-73
2021/09/02 04:08:21;;;;;;;20.00;13.93;;;10.30;99.90;;;;;;4975713;28;20508;-73
2021/09/02 04:10:48;;;;;;;19.75;12.60;;;10.30;99.90;;;;;;4987700;28;20026;-73
2021/09/02 04:13:15;;;;;;;19.02;12.45;;;10.30;99.90;;;;;;4975661;28;20475;-73
2021/09/02 04:15:41;;;;;;;21.08;12.88;;;10.20;99.90;;;;;;4975433;28;20033;-73
2021/09/02 04:18:07;;;;;;;19.50;12.98;;;10.10;99.90;;;;;;4976000;28;20022;-75
2021/09/02 04:20:34;;;;;;;18.27;12.02;;;10.10;99.90;;;;;;4993556;28;20037;-75
2021/09/02 04:23:00;;;;;;;21.27;12.40;;;10.10;99.90;;;;;;4986087;28;20023;-74
2021/09/02 04:25:26;;;;;;;28.40;13.95;;;10.20;99.90;;;;;;4990101;28;20026;-74
2021/09/02 04:27:52;;;;;;;20.92;13.00;;;10.20;99.90;;;;;;4985067;28;20145;-74
2021/09/02 04:30:20;;;;;;;21.23;12.65;;;10.20;99.90;;;;;;4994104;28;20054;-75
2021/09/02 04:32:46;;;;;;;21.75;13.43;;;10.10;99.90;;;;;;4993225;28;20026;-74
2021/09/02 04:35:12;;;;;;;21.02;13.07;;;10.10;99.90;;;;;;4993391;28;20439;-75
2021/09/02 04:37:40;;;;;;;24.13;15.38;;;10.10;99.90;;;;;;4990070;28;20372;-75
2021/09/02 04:40:08;;;;;;;27.55;16.05;;;10.10;99.90;;;;;;4975460;28;20466;-75
2021/09/02 04:42:34;;;;;;;22.67;14.35;;;10.10;99.90;;;;;;4974833;28;20476;-74
2021/09/02 04:45:01;;;;;;;26.75;16.35;;;10.20;99.90;;;;;;4976026;28;20038;-75
2021/09/02 04:47:27;;;;;;;25.95;15.88;;;10.30;99.90;;;;;;4985976;28;20023;-74
2021/09/02 04:49:55;;;;;;;26.00;15.35;;;10.30;99.90;;;;;;4975162;28;20031;-74
2021/09/02 04:52:21;;;;;;;26.98;14.65;;;10.30;99.90;;;;;;4982960;28;20460;-75
2021/09/02 04:54:48;;;;;;;23.33;15.52;;;10.30;99.90;;;;;;4975082;28;20472;-74
2021/09/02 04:57:19;;;;;;;25.75;15.63;;;10.30;99.90;;;;;;4990532;28;20431;-75
2021/09/02 04:59:48;;;;;;;27.67;15.02;;;10.30;99.90;;;;;;4979054;28;20034;-74
2021/09/02 05:02:15;;;;;;;23.02;14.88;;;10.30;99.90;;;;;;4974940;28;20037;-74
2021/09/02 05:04:41;;;;;;;24.60;15.13;;;10.30;99.90;;;;;;4974486;28;20452;-74
2021/09/02 05:07:08;;;;;;;23.63;15.10;;;10.40;99.90;;;;;;4987236;28;20057;-74
2021/09/02 05:09:34;;;;;;;27.38;15.63;;;10.40;99.90;;;;;;4993077;28;20042;-74
2021/09/02 05:12:00;;;;;;;20.60;13.75;;;10.40;99.90;;;;;;4980697;28;20026;-75
2021/09/02 05:14:27;;;;;;;22.80;14.32;;;10.40;99.90;;;;;;4992664;28;20030;-74
2021/09/02 05:16:53;;;;;;;25.00;13.95;;;10.40;99.90;;;;;;4991936;28;20034;-75
2021/09/02 05:19:19;;;;;;;23.30;12.45;;;10.50;99.90;;;;;;4992541;28;20098;-75
2021/09/02 05:21:45;;;;;;;21.65;13.60;;;10.50;99.90;;;;;;4976897;28;20461;-75
2021/09/02 05:24:11;;;;;;;22.85;14.02;;;10.60;99.90;;;;;;4980920;28;20033;-74
2021/09/02 05:26:38;;;;;;;20.15;13.82;;;10.70;99.90;;;;;;4988928;28;20038;-75
2021/09/02 05:29:04;;;;;;;19.00;12.82;;;11.10;99.90;;;;;;4977381;28;20035;-75
2021/09/02 05:31:30;;;;;;;12.48;9.75;;;11.70;99.90;;;;;;4989026;28;20027;-75
2021/09/02 05:33:56;;;;;;;11.73;8.35;;;12.30;99.90;;;;;;4980598;28;20042;-75
2021/09/02 05:36:23;;;;;;;11.40;7.40;;;13.30;99.90;;;;;;4981588;28;20042;-75
2021/09/02 05:38:49;;;;;;;10.48;6.00;;;13.80;99.90;;;;;;4984494;28;20046;-75
2021/09/02 05:41:15;;;;;;;7.85;5.53;;;14.20;99.90;;;;;;4982658;28;20038;-75
2021/09/02 05:43:41;;;;;;;7.00;5.35;;;14.20;99.90;;;;;;4973950;28;20042;-76
2021/09/02 05:46:07;;;;;;;5.88;4.85;;;14.80;99.90;;;;;;4987751;28;20039;-75
2021/09/02 05:48:34;;;;;;;7.72;5.63;;;14.90;99.90;;;;;;4974196;28;20039;-75
2021/09/02 05:51:00;;;;;;;7.45;5.93;;;15.10;99.90;;;;;;4981543;28;20033;-76
2021/09/02 05:53:26;;;;;;;7.50;5.82;;;15.30;99.90;;;;;;4973905;28;20494;-76
2021/09/02 05:55:52;;;;;;;6.85;4.88;;;15.50;99.90;;;;;;4973235;28;20030;-75
2021/09/02 05:58:20;;;;;;;8.15;5.43;;;15.60;99.90;;;;;;4972609;28;20495;-74
2021/09/02 06:00:47;;;;;;;7.32;5.53;;;15.80;99.90;;;;;;4988143;28;20030;-74
2021/09/02 06:03:14;;;;;;;7.25;4.97;;;15.90;99.40;;;;;;4979474;28;20035;-75
2021/09/02 06:05:40;;;;;;;9.30;6.50;;;16.00;98.30;;;;;;4988193;28;20034;-75
2021/09/02 06:08:06;;;;;;;8.48;5.25;;;16.20;97.70;;;;;;4991217;28;20364;-75
2021/09/02 06:10:33;;;;;;;7.07;4.95;;;16.20;98.00;;;;;;4991804;28;20045;-75
2021/09/02 06:13:01;;;;;;;6.03;4.93;;;16.60;97.30;;;;;;4974230;28;20051;-75
2021/09/02 06:15:27;;;;;;;8.38;5.85;;;17.80;94.50;;;;;;4972504;28;20056;-75
2021/09/02 06:17:54;;;;;;;7.20;4.82;;;18.30;92.60;;;;;;4973093;28;20034;-75
2021/09/02 06:20:20;;;;;;;7.60;4.97;;;18.40;91.40;;;;;;4981244;28;20026;-75
2021/09/02 06:22:46;;;;;;;5.63;4.60;;;18.00;91.30;;;;;;4978460;28;20037;-75
2021/09/02 06:25:12;;;;;;;6.22;4.80;;;17.90;91.60;;;;;;4973376;28;20037;-75
2021/09/02 06:27:39;;;;;;;8.65;5.28;;;18.70;90.40;;;;;;4977492;28;20026;-76
2021/09/02 06:30:06;;;;;;;8.23;5.25;;;19.40;87.00;;;;;;4989827;28;20467;-77
2021/09/02 06:32:32;;;;;;;6.20;5.05;;;19.80;85.40;;;;;;4973501;28;20460;-78
2021/09/02 06:34:59;;;;;;;8.63;5.47;;;19.30;86.00;;;;;;4972952;28;20039;-77
2021/09/02 06:37:25;;;;;;;6.60;4.55;;;19.10;86.10;;;;;;4973810;28;20050;-78
2021/09/02 06:39:51;;;;;;;10.20;5.55;;;18.70;87.00;;;;;;4972066;28;20267;-78
2021/09/02 06:42:18;;;;;;;7.03;4.88;;;18.70;87.20;;;;;;4981892;28;20035;-78
2021/09/02 06:44:44;;;;;;;8.25;6.18;;;18.90;88.20;;;;;;4982260;28;20030;-79
2021/09/02 06:47:10;;;;;;;6.57;4.70;;;18.10;90.00;;;;;;4992583;28;20026;-78
2021/09/02 06:49:37;;;;;;;9.38;5.47;;;18.00;90.40;;;;;;5004217;28;20057;-77
2021/09/02 06:52:03;;;;;;;7.57;5.35;;;18.10;90.30;;;;;;4983091;28;20038;-77
2021/09/02 06:54:29;;;;;;;6.03;4.85;;;18.00;90.10;;;;;;4990858;28;20014;-77
2021/09/02 06:56:56;;;;;;;6.82;5.35;;;17.80;90.80;;;;;;4991063;28;20057;-78
2021/09/02 06:59:22;;;;;;;8.25;5.75;;;18.30;90.40;;;;;;4990575;28;20042;-77
2021/09/02 07:01:48;;;;;;;8.48;5.18;;;18.90;88.90;;;;;;4990279;28;20037;-78
2021/09/02 07:04:14;;;;;;;7.63;4.82;;;18.40;88.60;;;;;;4984571;28;20373;-78
2021/09/02 07:06:40;;;;;;;6.40;5.05;;;18.10;90.30;;;;;;4972841;28;20037;-79
2021/09/02 07:09:07;;;;;;;6.72;4.82;;;18.80;88.60;;;;;;4984073;28;20046;-80
2021/09/02 07:11:33;;;;;;;6.03;4.90;;;18.40;90.10;;;;;;4996796;28;20026;-79
2021/09/02 07:13:59;;;;;;;6.55;4.85;;;18.80;89.20;;;;;;4990488;28;20023;-79
2021/09/02 07:16:26;;;;;;;6.90;4.85;;;18.00;89.90;;;;;;4996182;28;20034;-79
2021/09/02 07:18:53;;;;;;;6.93;5.05;;;17.50;90.90;;;;;;5005875;28;20453;-79
2021/09/02 07:21:19;;;;;;;7.22;4.85;;;17.80;90.70;;;;;;4982883;28;20035;-78
2021/09/02 07:23:45;;;;;;;7.38;4.57;;;18.30;89.90;;;;;;4987430;28;20053;-78
2021/09/02 07:26:12;;;;;;;8.25;5.10;;;18.60;89.70;;;;;;4977796;28;20030;-79
2021/09/02 07:28:39;;;;;;;6.43;4.68;;;19.00;87.90;;;;;;4978980;28;20033;-79
2021/09/02 07:31:06;;;;;;;8.25;5.47;;;19.10;87.30;;;;;;4978962;28;20435;-79
2021/09/02 07:33:33;;;;;;;6.07;4.30;;;18.90;87.40;;;;;;4986288;28;20468;-78
2021/09/02 07:35:59;;;;;;;7.70;4.68;;;18.50;89.00;;;;;;4982778;28;20468;-78
2021/09/02 07:38:25;;;;;;;5.65;4.68;;;18.70;88.30;;;;;;4989767;28;20456;-78
2021/09/02 07:40:52;;;;;;;5.90;4.55;;;18.80;88.20;;;;;;4990739;28;20031;-78
2021/09/02 07:43:18;;;;;;;7.40;4.50;;;19.30;87.00;;;;;;4975237;28;20062;-78
2021/09/02 07:45:44;;;;;;;6.05;3.88;;;19.40;85.40;;;;;;4991955;28;20030;-79
2021/09/02 07:48:10;;;;;;;6.25;4.03;;;19.50;85.00;;;;;;4980517;28;20023;-79
2021/09/02 07:50:36;;;;;;;4.07;3.65;;;19.70;85.40;;;;;;4976024;28;20058;-78
2021/09/02 07:53:03;;;;;;;5.88;4.00;;;19.70;85.50;;;;;;4983815;28;20033;-78
2021/09/02 07:55:29;;;;;;;5.93;4.22;;;19.90;83.70;;;;;;4994555;28;20041;-78
2021/09/02 07:57:56;;;;;;;5.30;3.90;;;19.80;83.10;;;;;;4994532;28;20456;-77
2021/09/02 08:00:22;;;;;;;5.28;3.88;;;20.40;81.30;;;;;;4992941;28;20518;-77
2021/09/02 08:02:49;;;;;;;5.47;4.10;;;20.70;80.60;;;;;;4982818;28;20034;-77
2021/09/02 08:05:15;;;;;;;5.53;4.07;;;20.60;80.80;;;;;;4994437;28;20037;-79
2021/09/02 08:07:48;;;;;;;5.88;3.78;;;20.00;82.20;;;;;;4995899;28;20057;-80
2021/09/02 08:10:17;;;;;;;5.85;3.95;;;19.60;83.80;;;;;;4985207;28;20053;-78
2021/09/02 08:12:43;;;;;;;5.78;4.20;;;19.60;84.00;;;;;;4977436;28;20026;-76
2021/09/02 08:15:10;;;;;;;5.28;3.75;;;19.40;84.80;;;;;;4978387;28;20022;-79
2021/09/02 08:17:36;;;;;;;6.40;4.32;;;19.10;85.70;;;;;;4980857;28;20316;-76
2021/09/02 08:20:04;;;;;;;6.90;4.40;;;19.50;84.70;;;;;;4985798;28;20038;-77
2021/09/02 08:22:31;;;;;;;5.07;3.75;;;19.50;84.90;;;;;;4993869;28;20042;-78
2021/09/02 08:24:57;;;;;;;5.20;4.18;;;20.00;84.10;;;;;;4975645;28;20031;-79
2021/09/02 08:27:23;;;;;;;6.50;4.28;;;19.80;84.60;;;;;;4977663;28;20022;-79
2021/09/02 08:29:50;;;;;;;6.15;4.53;;;20.20;83.90;;;;;;4991385;28;20042;-78
2021/09/02 08:32:18;;;;;;;5.57;3.90;;;20.10;84.10;;;;;;4990411;28;20083;-79
2021/09/02 08:34:44;;;;;;;6.15;4.22;;;20.10;84.50;;;;;;4996792;28;20054;-78
2021/09/02 08:37:10;;;;;;;6.68;3.78;;;20.50;84.20;;;;;;4981926;28;20376;-78
2021/09/02 08:39:36;;;;;;;5.13;3.60;;;20.60;83.80;;;;;;4979370;28;20051;-78
2021/09/02 08:42:04;;;;;;;4.53;3.33;;;20.70;84.40;;;;;;4979176;28;20043;-79
2021/09/02 08:44:30;;;;;;;5.47;3.88;;;21.10;83.60;;;;;;4979207;28;20050;-78
2021/09/02 08:46:56;;;;;;;4.30;3.35;;;21.60;82.30;;;;;;4995941;28;20041;-78
2021/09/02 08:49:24;;;;;;;4.80;3.50;;;21.60;81.50;;;;;;4976716;28;20380;-76
2021/09/02 08:51:51;;;;;;;4.22;3.40;;;22.60;74.70;;;;;;4984831;28;20022;-78
2021/09/02 08:54:20;;;;;;;6.50;3.80;;;22.80;76.90;;;;;;4991451;28;20038;-77
2021/09/02 08:56:47;;;;;;;5.28;3.40;;;23.00;73.90;;;;;;4976372;28;20023;-78
2021/09/02 08:59:13;;;;;;;6.93;4.32;;;22.80;74.50;;;;;;4976836;28;20037;-78
2021/09/02 09:01:39;;;;;;;5.45;3.63;;;22.50;78.00;;;;;;4977020;28;20046;-77
2021/09/02 09:04:12;;;;;;;5.82;3.55;;;23.90;75.30;;;;;;4976878;28;20058;-77
2021/09/02 09:06:40;;;;;;;6.35;4.00;;;24.40;69.90;;;;;;4979412;28;20026;-76
2021/09/02 09:09:13;;;;;;;4.63;3.47;;;24.40;63.30;;;;;;4994179;28;20026;-74
2021/09/02 09:11:48;;;;;;;6.78;3.75;;;23.70;66.70;;;;;;4993284;28;20038;-76
2021/09/02 09:14:25;;;;;;;5.13;3.45;;;23.30;72.00;;;;;;4976033;28;20027;-76
2021/09/02 09:16:56;;;;;;;4.72;3.33;;;23.50;70.60;;;;;;4980734;28;20053;-76
2021/09/02 09:19:43;;;;;;;6.38;3.92;;;23.80;62.40;;;;;;4993629;28;20058;-76
2021/09/02 09:22:12;;;;;;;4.68;3.63;;;24.20;61.80;;;;;;4980931;28;20372;-76
2021/09/02 09:24:51;;;;;;;5.00;4.00;;;24.30;59.40;;;;;;4975367;28;20049;-77
2021/09/02 09:27:23;;;;;;;4.38;3.10;;;24.50;59.10;;;;;;4974581;28;20078;-76
2021/09/02 09:30:08;;;;;;;3.90;3.10;;;24.90;58.50;;;;;;4958782;28;20051;-75
2021/09/02 09:32:37;;;;;;;5.65;3.90;;;24.30;58.70;;;;;;4985938;28;20451;-76
2021/09/02 09:35:05;;;;;;;6.23;3.80;;;24.70;59.10;;;;;;4988130;28;20041;-76
2021/09/02 09:37:32;;;;;;;4.40;3.10;;;24.90;58.00;;;;;;4985780;28;20289;-75
2021/09/02 09:40:08;;;;;;;4.78;4.00;;;24.30;57.60;;;;;;4984652;28;20037;-75
2021/09/02 09:42:34;;;;;;;5.10;3.80;;;23.70;58.10;;;;;;4990943;28;20102;-75
2021/09/02 09:45:00;;;;;;;4.45;3.20;;;23.50;59.00;;;;;;4994292;28;20038;-76
2021/09/02 09:47:27;;;;;;;4.35;3.53;;;23.20;57.80;;;;;;4992727;28;20485;-77
2021/09/02 09:50:00;;;;;;;6.22;3.80;;;23.20;58.60;;;;;;4978363;28;20228;-78
2021/09/02 09:52:41;;;;;;;3.90;3.20;;;22.80;58.50;;;;;;4993411;28;20029;-77
2021/09/02 09:55:16;;;;;;;4.90;3.63;;;22.50;59.10;;;;;;4993177;28;20316;-75
2021/09/02 09:57:46;;;;;;;3.97;3.13;;;22.70;59.10;;;;;;4986126;28;20039;-76
2021/09/02 10:00:15;;;;;;;3.80;3.08;;;22.70;58.00;;;;;;4985431;28;20026;-76
2021/09/02 10:02:47;;;;;;;5.05;3.25;;;22.60;59.40;;;;;;4978173;28;20026;-75
2021/09/02 10:05:15;;;;;;;4.00;3.30;;;22.40;59.70;;;;;;4974692;28;20022;-76
2021/09/02 10:07:43;;;;;;;4.53;3.28;;;22.50;59.10;;;;;;4974487;28;20516;-77
2021/09/02 10:10:13;;;;;;;4.57;3.20;;;22.60;58.50;;;;;;4990241;28;20047;-76
2021/09/02 10:12:42;;;;;;;7.03;3.75;;;22.30;58.60;;;;;;4975764;28;20026;-75
2021/09/02 10:15:12;;;;;;;5.85;3.28;;;22.50;58.70;;;;;;4974962;28;20061;-77
2021/09/02 10:17:40;;;;;;;5.17;2.93;;;22.80;58.80;;;;;;4983148;28;20030;-74
2021/09/02 10:20:22;;;;;;;5.75;3.28;;;22.80;58.00;;;;;;4987329;28;20046;-74
2021/09/02 10:22:53;;;;;;;4.00;3.15;;;22.70;57.80;;;;;;4974608;28;20030;-76
2021/09/02 10:25:35;;;;;;;4.90;2.75;;;22.60;56.90;;;;;;4976421;28;20031;-75
2021/09/02 10:28:12;;;;;;;4.85;3.53;;;23.00;56.00;;;;;;4975485;28;20030;-76
2021/09/02 10:30:48;;;;;;;4.50;3.30;;;22.90;57.80;;;;;;4992993;28;20042;-76
2021/09/02 10:33:40;;;;;;;5.13;3.45;;;22.90;56.70;;;;;;4987585;28;20023;-76
2021/09/02 10:36:15;;;;;;;5.75;3.17;;;23.20;57.00;;;;;;4981026;28;20058;-75
2021/09/02 10:38:46;;;;;;;5.03;3.28;;;23.00;56.10;;;;;;4982439;28;20050;-76
2021/09/02 10:41:13;;;;;;;5.18;2.92;;;22.90;56.60;;;;;;4983256;28;20035;-77
2021/09/02 10:43:54;;;;;;;5.03;3.53;;;22.90;56.40;;;;;;4990499;28;20030;-76
2021/09/02 10:46:28;;;;;;;5.05;3.72;;;22.70;56.90;;;;;;4993938;28;20027;-78
2021/09/02 10:48:55;;;;;;;4.78;3.30;;;22.80;57.20;;;;;;4982396;28;20033;-77
2021/09/02 10:51:39;;;;;;;4.88;3.60;;;23.30;57.30;;;;;;4982387;28;20559;-76
2021/09/02 10:54:07;;;;;;;3.92;3.13;;;22.90;55.20;;;;;;4991749;28;20053;-77
2021/09/02 10:56:57;;;;;;;3.67;2.95;;;23.00;55.80;;;;;;4985455;28;20026;-77
2021/09/02 10:59:40;;;;;;;;;;;22.90;55.80;;;;;;4976425;28;20487;-76
2021/09/02 11:02:28;;;;;;;3.97;2.80;;;23.20;57.10;;;;;;4974355;28;19913;-76
2021/09/02 11:05:06;;;;;;;4.35;3.35;;;23.30;55.60;;;;;;4970097;28;20049;-76
2021/09/02 11:07:36;;;;;;;4.30;3.03;;;23.30;55.20;;;;;;4974447;28;20046;-76
2021/09/02 11:10:13;;;;;;;4.55;3.22;;;23.60;55.90;;;;;;4975593;28;20031;-77
2021/09/02 11:12:40;;;;;;;4.65;3.20;;;23.90;56.20;;;;;;4975555;28;20034;-76
2021/09/02 11:15:07;;;;;;;3.75;2.95;;;23.70;55.60;;;;;;4988790;28;20046;-77
2021/09/02 11:17:33;;;;;;;5.03;3.35;;;23.40;56.90;;;;;;5000021;28;20035;-79
2021/09/02 11:20:00;;;;;;;4.22;3.25;;;23.50;56.10;;;;;;4984281;28;20039;-77
2021/09/02 11:22:26;;;;;;;4.68;3.08;;;23.60;56.70;;;;;;4991059;28;20049;-77
2021/09/02 11:24:54;;;;;;;5.78;3.40;;;23.40;55.30;;;;;;4986570;28;20369;-77
2021/09/02 11:27:29;;;;;;;4.88;3.10;;;23.40;56.50;;;;;;4992322;28;20026;-78
2021/09/02 11:30:20;;;;;;;3.45;2.90;;;23.20;56.50;;;;;;4993097;28;20614;-78
2021/09/02 11:32:59;;;;;;;;;;;23.30;55.80;;;;;;4996145;28;20034;-77
2021/09/02 11:35:26;;;;;;;3.78;3.08;;;23.50;55.50;;;;;;4995127;28;19920;-77
2021/09/02 11:37:52;;;;;;;4.30;3.38;;;23.60;55.00;;;;;;4981607;28;20038;-77
2021/09/02 11:40:27;;;;;;;4.28;3.40;;;23.50;55.50;;;;;;4986099;28;20356;-78
2021/09/02 11:42:55;;;;;;;3.80;2.72;;;23.30;54.60;;;;;;4977119;28;20039;-78
2021/09/02 11:45:23;;;;;;;4.32;2.95;;;23.50;54.40;;;;;;4988874;28;20027;-78
2021/09/02 11:47:50;;;;;;;3.70;2.95;;;23.60;54.40;;;;;;4992365;28;20371;-78
2021/09/02 11:50:18;;;;;;;4.25;2.92;;;23.50;53.80;;;;;;4977205;28;20030;-77
2021/09/02 11:52:50;;;;;;;4.80;3.38;;;23.20;55.00;;;;;;4977078;28;20058;-76
2021/09/02 11:55:33;;;;;;;4.47;3.22;;;23.30;55.00;;;;;;4978489;28;20037;-76
2021/09/02 11:58:02;;;;;;;6.10;3.17;;;23.40;55.30;;;;;;4977908;28;20388;-77
2021/09/02 12:00:30;;;;;;;5.70;3.33;;;23.60;55.60;;;;;;5019516;28;20038;-77
2021/09/02 12:02:58;;;;;;;3.85;2.60;;;24.00;54.60;;;;;;4997723;28;20281;-77
2021/09/02 12:05:29;;;;;;;5.00;3.33;;;23.60;54.10;;;;;;4987188;28;20440;-77
2021/09/02 12:07:57;;;;;;;4.18;3.30;;;23.70;54.30;;;;;;4984475;28;20471;-78
2021/09/02 12:10:24;;;;;;;3.80;2.70;;;23.70;54.30;;;;;;4992397;28;20038;-76
2021/09/02 12:12:50;;;;;;;5.90;3.33;;;23.80;53.50;;;;;;4987423;28;20034;-76
2021/09/02 12:15:29;;;;;;;6.45;3.03;;;23.70;54.00;;;;;;4997186;28;20113;-77
2021/09/02 12:18:08;;;;;;;3.85;2.92;;;23.80;53.70;;;;;;5001539;28;20047;-77
2021/09/02 12:20:37;;;;;;;3.70;3.00;;;23.90;53.60;;;;;;4986461;28;20027;-76
2021/09/02 12:23:23;;;;;;;5.15;2.78;;;23.70;53.40;;;;;;4987470;28;20063;-77
2021/09/02 12:26:00;;;;;;;4.60;3.35;;;23.70;54.10;;;;;;4985829;28;20368;-75
2021/09/02 12:28:39;;;;;;;5.53;3.53;;;23.70;53.90;;;;;;4992444;28;20035;-78
2021/09/02 12:31:14;;;;;;;4.43;2.72;;;24.00;53.90;;;;;;4976635;28;20464;-79
2021/09/02 12:34:01;;;;;;;4.38;3.03;;;23.90;53.30;;;;;;4975825;28;20035;-79
2021/09/02 12:36:37;;;;;;;3.60;2.80;;;23.80;53.10;;;;;;4976688;28;20039;-78
2021/09/02 12:39:17;;;;;;;3.88;2.60;;;23.80;52.80;;;;;;4976735;28;20026;-79
2021/09/02 12:41:46;;;;;;;5.95;3.17;;;24.30;52.70;;;;;;4977863;28;20041;-77
2021/09/02 12:44:23;;;;;;;4.43;3.13;;;24.20;52.80;;;;;;4978785;28;20507;-77